Time;durP1;ratioP1;P1;durP2;ratioP2;P2;SDS_P1;SDS_P2;PMS_P1;PMS_P2;Temp;Humidity;BMP_temperature;BMP_pressure;BME280_temperature;BME280_humidity;BME280_pressure;Samples;Min_cycle;Max_cycle;Signal;HPM_P1;HPM_P2
2022/01/16 00:04:07;;;;;;;28.63;12.60;;;0.40;99.90;;;;;;10008123;29;20207;-81
2022/01/16 00:09:28;;;;;;;31.10;11.77;;;0.30;99.90;;;;;;9997020;29;20218;-87
2022/01/16 00:14:51;;;;;;;31.20;14.47;;;0.30;99.90;;;;;;10009292;29;20253;-81
2022/01/16 00:20:13;;;;;;;33.47;13.50;;;0.40;99.90;;;;;;9983845;29;20279;-77
2022/01/16 00:31:37;;;;;;;28.93;13.10;;;0.40;99.90;;;;;;11696443;24;20254;-81
2022/01/16 00:36:59;;;;;;;26.93;12.07;;;0.40;99.90;;;;;;9955675;29;20231;-78
2022/01/16 00:42:21;;;;;;;32.67;13.63;;;0.40;99.90;;;;;;9955221;29;20427;-77
2022/01/16 00:47:43;;;;;;;31.27;13.33;;;0.40;99.90;;;;;;9969201;29;20204;-82
2022/01/16 00:53:05;;;;;;;33.97;13.67;;;0.40;99.90;;;;;;9956566;29;20251;-78
2022/01/16 00:58:27;;;;;;;34.90;14.10;;;0.40;99.90;;;;;;9955653;29;20428;-82
2022/01/16 01:03:49;;;;;;;29.50;13.20;;;0.40;99.90;;;;;;9942440;29;20221;-84
2022/01/16 01:09:11;;;;;;;35.03;14.47;;;0.40;99.90;;;;;;9948183;29;20212;-82
2022/01/16 01:14:42;;;;;;;32.83;13.60;;;0.40;99.90;;;;;;9954047;29;20238;-80
2022/01/16 01:20:07;;;;;;;32.43;13.40;;;0.50;99.90;;;;;;9966250;29;20207;-78
2022/01/16 01:25:29;;;;;;;29.37;13.30;;;0.40;99.90;;;;;;9969174;29;20208;-78
2022/01/16 01:30:51;;;;;;;31.67;13.37;;;0.40;99.90;;;;;;9966887;29;20534;-77
2022/01/16 01:36:14;;;;;;;27.00;13.10;;;0.50;99.90;;;;;;9971607;29;20399;-80
2022/01/16 01:59:33;;;;;;;32.43;14.37;;;0.50;99.90;;;;;;11216337;23;20246;31
2022/01/16 02:04:55;;;;;;;30.13;13.50;;;0.50;99.90;;;;;;9979818;24;20254;-80
2022/01/16 02:10:17;;;;;;;38.30;14.77;;;0.50;99.90;;;;;;10476666;24;20490;-77
2022/01/16 02:33:00;;;;;;;30.50;16.87;;;0.40;99.90;;;;;;9981983;29;20305;-78
2022/01/16 02:45:00;;;;;;;27.17;13.40;;;0.50;99.90;;;;;;11166009;23;20245;-78
2022/01/16 02:50:26;;;;;;;31.13;14.53;;;0.50;99.90;;;;;;10537022;24;20242;-82
2022/01/16 02:55:48;;;;;;;31.77;14.13;;;0.50;99.90;;;;;;10626054;24;20245;-77
2022/01/16 03:34:18;;;;;;;34.50;16.03;;;0.40;99.90;;;;;;9818557;30;20257;-77
2022/01/16 03:39:40;;;;;;;31.00;16.13;;;0.40;99.90;;;;;;10506793;24;20258;-82
2022/01/16 03:45:05;;;;;;;35.97;16.60;;;0.30;99.90;;;;;;10840056;24;20317;-80
2022/01/16 03:50:27;;;;;;;31.90;14.70;;;0.30;99.90;;;;;;9999866;24;20314;-76
2022/01/16 03:56:22;;;;;;;31.60;15.57;;;0.40;99.90;;;;;;10254884;24;20259;-87
2022/01/16 04:08:31;;;;;;;34.97;13.63;;;0.40;99.90;;;;;;9952795;29;20246;-85
2022/01/16 04:21:49;;;;;;;26.73;12.83;;;0.40;99.90;;;;;;9779140;24;20264;-77
2022/01/16 04:27:14;;;;;;;32.23;13.97;;;0.30;99.90;;;;;;10325908;24;20240;-78
2022/01/16 04:32:40;;;;;;;29.33;12.80;;;0.30;99.90;;;;;;10040386;29;20241;-78
2022/01/16 04:38:03;;;;;;;30.03;13.87;;;0.30;99.90;;;;;;10605167;24;20245;-78
2022/01/16 04:49:06;;;;;;;27.53;12.93;;;0.20;99.90;;;;;;10018959;29;20430;-85
2022/01/16 04:54:28;;;;;;;26.53;13.07;;;0.20;99.90;;;;;;10045289;29;20256;-84
2022/01/16 04:59:50;;;;;;;30.13;14.40;;;0.20;99.90;;;;;;10045479;29;20225;-88
2022/01/16 05:05:13;;;;;;;35.67;17.73;;;0.30;99.90;;;;;;10046705;29;20218;-78
2022/01/16 05:10:35;;;;;;;31.37;14.80;;;0.40;99.90;;;;;;10025917;29;20214;-82
2022/01/16 05:21:40;;;;;;;30.60;15.83;;;0.40;99.90;;;;;;9999775;29;20393;-90
2022/01/16 05:27:05;;;;;;;32.73;15.03;;;0.50;99.90;;;;;;10013798;29;20500;-89
2022/01/16 05:32:26;;;;;;;34.67;15.73;;;0.50;99.90;;;;;;9985223;29;20286;-85
2022/01/16 05:37:48;;;;;;;26.90;13.57;;;0.40;99.90;;;;;;9985091;29;20207;-84
2022/01/16 05:43:11;;;;;;;26.63;12.70;;;0.40;99.90;;;;;;9991374;29;20265;-86
2022/01/16 05:48:33;;;;;;;25.20;12.53;;;0.40;99.90;;;;;;9990260;29;20260;-79
2022/01/16 05:53:56;;;;;;;32.20;13.60;;;0.40;99.90;;;;;;9994466;29;20241;-79
2022/01/16 05:59:18;;;;;;;34.53;14.77;;;0.40;99.90;;;;;;9972987;29;20212;-77
2022/01/16 06:04:40;;;;;;;27.53;12.70;;;0.40;99.90;;;;;;9989263;29;20232;-79
2022/01/16 06:10:03;;;;;;;28.07;12.63;;;0.30;99.90;;;;;;9973127;29;20200;-84
2022/01/16 06:15:25;;;;;;;33.37;13.97;;;0.30;99.90;;;;;;9961748;29;20248;-83
2022/01/16 06:20:50;;;;;;;29.27;15.37;;;0.30;99.90;;;;;;9972409;29;20203;-82
2022/01/16 06:26:12;;;;;;;28.30;14.00;;;0.40;99.90;;;;;;9972597;29;20268;-91
2022/01/16 06:31:35;;;;;;;70.83;24.53;;;0.40;99.90;;;;;;9971978;29;20223;-90
2022/01/16 06:36:58;;;;;;;86.23;28.93;;;0.40;99.90;;;;;;9972823;29;20252;-89
2022/01/16 06:42:22;;;;;;;58.87;24.00;;;0.40;99.90;;;;;;10010993;29;20282;-85
2022/01/16 06:47:44;;;;;;;55.83;24.47;;;0.50;99.90;;;;;;10000684;29;20202;-83
2022/01/16 06:53:07;;;;;;;40.00;19.77;;;0.50;99.90;;;;;;10011130;29;20232;-92
2022/01/16 06:58:28;;;;;;;39.43;19.90;;;0.50;99.90;;;;;;9999363;29;20207;-83
2022/01/16 07:03:51;;;;;;;38.27;18.37;;;0.50;99.90;;;;;;10010697;29;20210;-86
2022/01/16 07:09:13;;;;;;;45.37;20.27;;;0.50;99.90;;;;;;10008353;29;20227;-83
2022/01/16 07:14:43;;;;;;;52.20;23.13;;;0.50;99.90;;;;;;9998337;29;20238;-87
2022/01/16 07:20:07;;;;;;;46.10;19.53;;;0.50;99.90;;;;;;9981822;29;20375;-84
2022/01/16 07:25:29;;;;;;;56.13;25.60;;;0.60;99.90;;;;;;10013315;29;20215;-83
2022/01/16 07:30:51;;;;;;;46.13;22.40;;;0.60;99.90;;;;;;10035002;24;20252;-92
2022/01/16 07:36:13;;;;;;;40.60;17.73;;;0.60;99.90;;;;;;10076714;29;20258;-80
2022/01/16 07:41:35;;;;;;;30.43;14.80;;;0.50;99.90;;;;;;10074437;29;20272;-81
2022/01/16 07:46:57;;;;;;;29.63;12.67;;;0.60;99.90;;;;;;10086672;29;20199;-90
2022/01/16 07:52:19;;;;;;;30.73;13.43;;;0.60;99.90;;;;;;10087315;29;20264;-81
2022/01/16 07:57:44;;;;;;;24.97;13.70;;;0.60;99.90;;;;;;10088828;29;20195;-90
2022/01/16 08:03:20;;;;;;;27.33;12.20;;;0.70;99.90;;;;;;10072628;29;20220;-83
2022/01/16 08:08:43;;;;;;;27.37;13.40;;;0.70;99.90;;;;;;10073148;29;20209;-93
2022/01/16 08:14:05;;;;;;;30.37;13.13;;;0.70;99.90;;;;;;10036196;29;20251;-84
2022/01/16 08:19:28;;;;;;;33.07;16.87;;;0.70;99.90;;;;;;10035391;29;20394;-77
2022/01/16 08:24:50;;;;;;;34.40;15.07;;;0.80;99.90;;;;;;10055811;29;20323;-78
2022/01/16 08:30:13;;;;;;;39.23;17.03;;;0.80;99.90;;;;;;10037881;29;20239;-78
2022/01/16 08:35:35;;;;;;;37.17;17.00;;;0.80;99.90;;;;;;10697910;24;20258;-78
2022/01/16 08:40:57;;;;;;;34.73;15.77;;;0.90;99.90;;;;;;10084508;24;20246;-78
2022/01/16 08:46:22;;;;;;;42.03;19.03;;;0.90;99.90;;;;;;10029324;29;20273;-76
2022/01/16 08:51:44;;;;;;;43.33;23.60;;;0.90;99.90;;;;;;10014917;29;20541;-76
2022/01/16 08:57:06;;;;;;;48.47;21.90;;;1.00;99.90;;;;;;10018338;29;20207;-78
2022/01/16 09:02:28;;;;;;;49.73;21.83;;;1.10;99.90;;;;;;10031295;29;20270;-78
2022/01/16 09:07:51;;;;;;;46.83;20.40;;;0.90;99.90;;;;;;10028901;29;20282;-83
2022/01/16 09:14:22;;;;;;;66.87;34.10;;;0.90;99.90;;;;;;10029405;24;20251;-79
2022/01/16 09:21:02;;;;;;;42.60;19.30;;;1.10;99.90;;;;;;10395091;24;20316;-84
2022/01/16 09:26:54;;;;;;;33.67;13.63;;;1.00;99.90;;;;;;10135655;24;20256;-77
2022/01/16 09:32:17;;;;;;;37.17;14.80;;;0.90;99.90;;;;;;10028662;29;20281;-79
2022/01/16 09:37:39;;;;;;;35.97;13.27;;;1.00;99.90;;;;;;10029357;29;20216;-79
2022/01/16 09:48:59;;;;;;;40.20;17.37;;;1.00;99.90;;;;;;10506922;24;20251;-77
2022/01/16 09:54:24;;;;;;;33.73;13.70;;;1.00;99.90;;;;;;10006209;29;20241;-77
2022/01/16 09:59:46;;;;;;;35.07;11.43;;;1.00;99.90;;;;;;10035162;29;20226;-77
2022/01/16 10:12:51;;;;;;;41.00;12.20;;;1.00;99.90;;;;;;9926408;29;20240;-77
2022/01/16 10:18:13;;;;;;;36.07;11.87;;;1.00;99.90;;;;;;9918356;29;20601;-76
2022/01/16 10:23:40;;;;;;;25.33;9.63;;;1.10;99.90;;;;;;9918062;29;20209;-77
2022/01/16 10:29:02;;;;;;;31.40;9.93;;;1.10;99.90;;;;;;9917635;29;20494;-82
2022/01/16 10:42:15;;;;;;;88.57;29.40;;;1.20;99.90;;;;;;10118127;24;20236;-79
2022/01/16 10:47:41;;;;;;;76.30;35.00;;;1.20;99.90;;;;;;10010772;29;20260;-82
2022/01/16 10:53:15;;;;;;;37.00;13.27;;;1.30;99.90;;;;;;10009655;29;20573;-79
2022/01/16 10:58:39;;;;;;;35.77;10.83;;;1.30;99.90;;;;;;10109772;24;20299;-79
2022/01/16 11:04:02;;;;;;;34.60;11.40;;;1.30;99.90;;;;;;10155778;24;20226;-78
2022/01/16 11:10:09;;;;;;;32.57;12.00;;;1.40;99.90;;;;;;10551049;24;20268;-78
2022/01/16 11:16:25;;;;;;;29.37;11.17;;;1.30;99.90;;;;;;9915956;30;20227;-84
2022/01/16 11:30:15;;;;;;;21.30;9.23;;;1.40;99.90;;;;;;11182657;24;20250;-77
2022/01/16 11:35:50;;;;;;;24.43;9.40;;;1.40;99.90;;;;;;10761011;24;20423;-76
2022/01/16 11:47:15;;;;;;;41.50;15.60;;;1.30;99.90;;;;;;11240674;24;21342;-78
2022/01/16 11:59:13;;;;;;;28.40;13.60;;;1.40;99.90;;;;;;10191141;24;20322;-79
2022/01/16 12:11:02;;;;;;;37.67;13.27;;;1.40;99.90;;;;;;9929077;30;20249;-83
2022/01/16 12:16:40;;;;;;;36.27;11.83;;;1.50;99.90;;;;;;9933338;29;20303;-84
2022/01/16 12:22:08;;;;;;;30.97;10.67;;;1.60;99.90;;;;;;9943716;29;20209;-87
2022/01/16 12:28:01;;;;;;;33.63;11.33;;;1.60;99.90;;;;;;9951393;29;20372;-84
2022/01/16 12:33:30;;;;;;;28.20;10.77;;;1.60;99.90;;;;;;9930646;29;20299;-87
2022/01/16 12:39:00;;;;;;;28.43;11.17;;;1.60;99.90;;;;;;9945295;29;20205;-83
2022/01/16 12:44:22;;;;;;;29.83;9.33;;;1.70;99.90;;;;;;9938359;29;20228;-82
2022/01/16 12:49:45;;;;;;;36.67;14.90;;;1.70;99.90;;;;;;9938175;29;20310;-83
2022/01/16 12:55:08;;;;;;;29.43;12.00;;;1.70;99.90;;;;;;9930763;29;20549;-82
2022/01/16 13:00:30;;;;;;;36.60;15.30;;;1.70;99.90;;;;;;9915141;29;20208;-85
2022/01/16 13:06:14;;;;;;;29.70;12.30;;;1.70;99.90;;;;;;9930487;29;20216;-86
2022/01/16 13:11:44;;;;;;;27.50;10.90;;;1.70;99.90;;;;;;9942368;29;20267;-84
2022/01/16 13:17:09;;;;;;;79.60;18.13;;;1.80;99.90;;;;;;9938594;29;20205;-85
2022/01/16 13:22:37;;;;;;;32.20;14.30;;;1.70;99.90;;;;;;9935414;29;20230;-89
2022/01/16 13:28:00;;;;;;;45.23;14.13;;;1.70;99.90;;;;;;9930617;29;20213;-82
2022/01/16 13:33:23;;;;;;;45.50;16.00;;;1.80;99.90;;;;;;9956149;29;20233;-83
2022/01/16 13:38:46;;;;;;;75.23;26.20;;;1.70;99.90;;;;;;9957773;29;20203;-83
2022/01/16 13:44:27;;;;;;;56.33;22.87;;;1.70;99.90;;;;;;9965618;29;20204;-88
2022/01/16 13:49:52;;;;;;;57.07;23.87;;;1.70;99.90;;;;;;9903693;29;20214;-80
2022/01/16 13:55:14;;;;;;;49.17;21.63;;;1.60;99.90;;;;;;9936392;29;20260;-80
2022/01/16 14:00:36;;;;;;;52.50;20.37;;;1.60;99.90;;;;;;9955077;29;20368;-81
2022/01/16 14:06:06;;;;;;;46.23;20.07;;;1.50;99.90;;;;;;9939127;29;20287;-80
2022/01/16 14:11:37;;;;;;;47.27;17.60;;;1.50;99.90;;;;;;9950927;29;20259;-81
2022/01/16 14:22:28;;;;;;;41.70;15.03;;;1.50;99.90;;;;;;9956260;29;20270;-81
2022/01/16 14:27:56;;;;;;;34.27;14.73;;;1.50;99.90;;;;;;9953554;29;20209;-77
2022/01/16 14:33:20;;;;;;;41.43;15.23;;;1.50;99.90;;;;;;9934445;29;20240;-80
2022/01/16 14:39:06;;;;;;;50.60;16.20;;;1.50;99.90;;;;;;9947780;29;20212;-85
2022/01/16 14:44:48;;;;;;;45.93;17.27;;;1.50;99.90;;;;;;9935458;30;20201;-85
2022/01/16 14:50:14;;;;;;;31.30;15.00;;;1.50;99.90;;;;;;9941246;30;20443;-75
2022/01/16 14:55:37;;;;;;;37.77;14.73;;;1.50;99.90;;;;;;9938756;29;20228;-79
2022/01/16 15:00:59;;;;;;;29.87;13.47;;;1.50;99.90;;;;;;9937903;29;20525;-82
2022/01/16 15:06:22;;;;;;;39.93;14.63;;;1.40;99.90;;;;;;9934043;30;20388;-80
2022/01/16 15:11:44;;;;;;;34.83;12.97;;;1.50;99.90;;;;;;9933444;30;20251;-88
2022/01/16 15:17:06;;;;;;;35.53;14.23;;;1.50;99.90;;;;;;9922961;30;20230;-80
2022/01/16 15:22:29;;;;;;;39.70;11.93;;;1.40;99.90;;;;;;9923032;30;20216;-78
2022/01/16 15:27:51;;;;;;;27.67;11.00;;;1.40;99.90;;;;;;9920373;30;20455;-91
2022/01/16 15:33:14;;;;;;;36.83;12.10;;;1.50;99.90;;;;;;9937327;30;20252;-79
2022/01/16 15:38:36;;;;;;;29.07;11.23;;;1.50;99.90;;;;;;9921647;30;20235;-89
2022/01/16 15:44:00;;;;;;;32.83;11.63;;;1.60;99.90;;;;;;9917858;30;20213;-85
2022/01/16 15:49:24;;;;;;;22.47;10.47;;;1.50;99.90;;;;;;9936265;29;20208;-83
2022/01/16 15:54:48;;;;;;;27.07;10.30;;;1.60;99.90;;;;;;9925243;30;20224;-77
2022/01/16 16:00:12;;;;;;;29.93;10.50;;;1.60;99.90;;;;;;9920272;30;20258;-80
2022/01/16 16:05:37;;;;;;;28.40;11.50;;;1.60;99.90;;;;;;9920843;30;20289;-75
2022/01/16 16:11:00;;;;;;;26.67;11.80;;;1.70;99.90;;;;;;9933885;29;20245;-80
2022/01/16 16:16:23;;;;;;;31.03;12.70;;;1.70;99.90;;;;;;9937051;30;20258;-78
2022/01/16 16:21:45;;;;;;;34.63;12.67;;;1.70;99.90;;;;;;9936811;30;20390;-89
2022/01/16 16:27:07;;;;;;;25.40;11.77;;;1.70;99.90;;;;;;9919457;30;20506;-82
2022/01/16 16:32:30;;;;;;;28.47;12.23;;;1.70;99.90;;;;;;9935006;30;20228;-76
2022/01/16 16:37:54;;;;;;;26.40;13.00;;;1.70;99.90;;;;;;9935278;30;20235;-84
2022/01/16 16:43:18;;;;;;;31.63;13.57;;;1.70;99.90;;;;;;9934081;30;20491;-79
2022/01/16 16:48:40;;;;;;;33.87;13.83;;;1.70;99.90;;;;;;9914677;30;20220;-75
2022/01/16 16:54:03;;;;;;;27.30;14.27;;;1.70;99.90;;;;;;9934704;30;20244;-75
2022/01/16 16:59:25;;;;;;;33.17;13.77;;;1.70;99.90;;;;;;9930637;30;20215;-82
2022/01/16 17:04:48;;;;;;;30.87;15.60;;;1.70;99.90;;;;;;9942440;29;20367;-83
2022/01/16 17:10:13;;;;;;;26.83;14.13;;;1.80;99.90;;;;;;9943668;29;20306;-82
2022/01/16 17:15:36;;;;;;;29.63;14.27;;;1.80;99.90;;;;;;9927980;30;20244;-79
2022/01/16 17:21:09;;;;;;;35.67;16.00;;;1.80;99.90;;;;;;9929357;30;20209;-79
2022/01/16 17:26:31;;;;;;;34.97;16.07;;;1.70;99.90;;;;;;9928569;30;20215;-81
2022/01/16 17:31:53;;;;;;;32.50;15.33;;;1.70;99.90;;;;;;9942061;30;20208;-79
2022/01/16 17:37:15;;;;;;;38.23;16.03;;;1.80;99.90;;;;;;9943882;30;20209;-78
2022/01/16 17:42:37;;;;;;;32.77;15.90;;;1.80;99.90;;;;;;9942161;30;20265;-78
2022/01/16 17:47:59;;;;;;;34.00;15.90;;;1.80;99.90;;;;;;9927097;30;20266;-78
2022/01/16 17:53:21;;;;;;;26.17;15.70;;;1.80;99.90;;;;;;9915760;30;20248;-79
2022/01/16 17:58:43;;;;;;;26.10;14.20;;;1.80;99.90;;;;;;9925204;30;20227;-82
2022/01/16 18:04:05;;;;;;;35.40;16.27;;;1.80;99.90;;;;;;9941660;30;20209;-87
2022/01/16 18:09:28;;;;;;;34.93;15.23;;;1.90;99.90;;;;;;9941666;29;20554;-81
2022/01/16 18:14:50;;;;;;;27.27;14.40;;;1.90;99.90;;;;;;9938264;29;20241;-82
2022/01/16 18:20:14;;;;;;;26.67;14.37;;;1.80;99.90;;;;;;9936623;30;20417;-81
2022/01/16 18:25:37;;;;;;;26.63;14.17;;;1.90;99.90;;;;;;9908338;30;20220;-82
2022/01/16 18:30:58;;;;;;;21.73;12.50;;;1.90;99.90;;;;;;9934139;30;20203;-79
2022/01/16 18:36:20;;;;;;;27.00;14.33;;;2.00;99.90;;;;;;9906321;30;20232;-81
2022/01/16 18:41:42;;;;;;;27.60;13.97;;;2.00;99.90;;;;;;9933225;30;20205;-80
2022/01/16 18:47:07;;;;;;;24.67;13.43;;;2.10;99.90;;;;;;9934165;30;20403;-78
2022/01/16 18:52:31;;;;;;;25.07;12.73;;;2.10;99.90;;;;;;9918487;30;20219;-79
2022/01/16 18:57:53;;;;;;;25.97;14.50;;;2.10;99.90;;;;;;9920229;30;20224;-88
2022/01/16 19:03:15;;;;;;;20.37;11.60;;;2.10;99.90;;;;;;9936027;30;20201;-77
2022/01/16 19:08:39;;;;;;;20.13;11.30;;;2.10;99.90;;;;;;9947015;29;20241;-77
2022/01/16 19:14:00;;;;;;;27.07;13.80;;;2.20;99.90;;;;;;9940211;30;20237;-78
2022/01/16 19:19:23;;;;;;;28.40;13.03;;;2.20;99.90;;;;;;9932936;30;20205;-75
2022/01/16 19:24:45;;;;;;;24.27;13.73;;;2.20;99.90;;;;;;9931985;29;20205;-91
2022/01/16 19:30:08;;;;;;;26.40;13.60;;;2.30;99.90;;;;;;9935786;30;20267;-75
2022/01/16 19:35:30;;;;;;;24.67;12.57;;;2.30;99.90;;;;;;9936695;30;20233;-87
2022/01/16 19:40:52;;;;;;;22.57;13.67;;;2.30;99.90;;;;;;9940916;30;20269;-75
2022/01/16 19:46:15;;;;;;;26.43;13.40;;;2.30;99.90;;;;;;9919165;30;20229;-77
2022/01/16 19:51:39;;;;;;;22.27;11.10;;;2.30;99.90;;;;;;9922456;30;20431;-81
2022/01/16 19:57:01;;;;;;;22.27;11.47;;;2.40;99.90;;;;;;9932445;30;20249;-75
2022/01/16 20:02:32;;;;;;;18.90;11.67;;;2.40;99.90;;;;;;9931298;30;20258;-74
2022/01/16 20:07:54;;;;;;;18.93;10.87;;;2.40;99.90;;;;;;9918183;29;20266;-90
2022/01/16 20:13:16;;;;;;;15.97;8.97;;;2.30;99.90;;;;;;9919738;30;20586;-75
2022/01/16 20:18:40;;;;;;;17.93;10.03;;;2.40;99.90;;;;;;9933924;30;20208;-88
2022/01/16 20:24:03;;;;;;;17.67;9.40;;;2.40;99.90;;;;;;9918894;30;20210;-91
2022/01/16 20:29:26;;;;;;;16.57;9.60;;;2.50;99.90;;;;;;9920111;30;20213;-87
2022/01/16 20:34:48;;;;;;;17.00;9.93;;;2.50;99.90;;;;;;9917115;29;20240;-75
2022/01/16 20:40:13;;;;;;;21.03;11.87;;;2.50;99.90;;;;;;9931659;30;20268;-79
2022/01/16 20:45:35;;;;;;;20.60;10.80;;;2.50;99.90;;;;;;9918505;30;20211;-91
2022/01/16 20:50:56;;;;;;;21.37;11.33;;;2.50;99.90;;;;;;9914448;30;20214;-79
2022/01/16 20:56:19;;;;;;;16.47;10.60;;;2.60;99.90;;;;;;9913889;30;20553;-81
2022/01/16 21:01:42;;;;;;;17.83;11.03;;;2.70;99.90;;;;;;9930960;30;20209;-78
2022/01/16 21:07:04;;;;;;;16.67;10.53;;;2.70;99.90;;;;;;9917956;30;20496;-79
2022/01/16 21:12:26;;;;;;;18.23;11.17;;;2.70;99.90;;;;;;9928480;30;20509;-85
2022/01/16 21:17:50;;;;;;;15.53;10.43;;;2.70;99.90;;;;;;9931406;30;20208;-75
2022/01/16 21:23:14;;;;;;;16.83;10.77;;;2.80;99.90;;;;;;9931216;30;20207;-81
2022/01/16 21:28:35;;;;;;;17.40;10.07;;;2.80;99.90;;;;;;9930607;30;20206;-76
2022/01/16 21:33:58;;;;;;;15.13;10.00;;;2.80;99.90;;;;;;9930704;30;20233;-86
2022/01/16 21:39:23;;;;;;;18.53;11.00;;;2.90;99.90;;;;;;10031146;23;20235;-78
2022/01/16 21:44:46;;;;;;;17.53;9.80;;;2.90;99.90;;;;;;10027048;29;20280;-75
2022/01/16 21:50:16;;;;;;;15.70;10.27;;;3.00;99.90;;;;;;10029817;29;20211;-75
2022/01/16 21:55:38;;;;;;;12.33;8.70;;;3.10;99.90;;;;;;10020644;29;20238;-85
2022/01/16 22:01:02;;;;;;;13.10;7.83;;;3.10;99.90;;;;;;10032482;29;20214;-79
2022/01/16 22:06:24;;;;;;;13.13;7.40;;;3.10;99.90;;;;;;10049148;29;20196;-80
2022/01/16 22:11:51;;;;;;;10.17;7.00;;;3.20;99.90;;;;;;10049616;29;20231;-79
2022/01/16 22:17:13;;;;;;;9.63;6.40;;;3.30;99.90;;;;;;10036023;29;20250;-77
2022/01/16 22:22:51;;;;;;;12.97;7.63;;;3.40;99.90;;;;;;10078731;24;20578;-76
2022/01/16 22:28:31;;;;;;;12.13;7.67;;;3.40;99.90;;;;;;10034490;29;20212;-75
2022/01/16 22:33:53;;;;;;;16.47;9.70;;;3.40;99.90;;;;;;10033731;29;20400;-86
2022/01/16 22:39:15;;;;;;;18.43;10.40;;;3.50;99.90;;;;;;10046541;29;20266;-76
2022/01/16 22:44:37;;;;;;;20.50;10.80;;;3.50;99.90;;;;;;10048121;29;20232;-77
2022/01/16 22:49:59;;;;;;;20.33;9.63;;;3.60;99.90;;;;;;10017911;29;20207;-86
2022/01/16 22:55:21;;;;;;;20.03;9.53;;;3.70;99.90;;;;;;10047894;29;20294;-82
2022/01/16 23:00:43;;;;;;;14.53;7.93;;;3.80;99.90;;;;;;10047240;29;20195;-90
2022/01/16 23:06:05;;;;;;;17.37;8.37;;;3.80;99.90;;;;;;10036520;29;20206;-84
2022/01/16 23:11:27;;;;;;;17.00;8.03;;;3.80;99.90;;;;;;10029762;29;20212;-76
2022/01/16 23:16:50;;;;;;;18.73;8.00;;;3.80;99.90;;;;;;10032627;29;20264;-86
2022/01/16 23:22:11;;;;;;;14.63;6.50;;;3.90;99.90;;;;;;10046068;29;20239;-82
2022/01/16 23:27:34;;;;;;;14.13;6.23;;;3.80;99.90;;;;;;10045583;29;20204;-90
2022/01/16 23:33:01;;;;;;;15.83;6.30;;;3.90;99.90;;;;;;10045715;29;20212;-90
2022/01/16 23:38:25;;;;;;;14.53;5.60;;;4.00;99.90;;;;;;10046015;29;20208;-86
2022/01/16 23:43:47;;;;;;;11.63;5.60;;;4.00;99.90;;;;;;10045247;29;20208;-88
2022/01/16 23:49:09;;;;;;;18.77;5.40;;;4.00;99.90;;;;;;10044778;29;20231;-84
2022/01/16 23:54:31;;;;;;;11.80;3.70;;;4.00;99.90;;;;;;10028866;29;20300;-84
2022/01/16 23:59:54;;;;;;;14.23;3.70;;;4.00;99.90;;;;;;10045660;29;20233;-83
